Time;durP1;ratioP1;P1;durP2;ratioP2;P2;SDS_P1;SDS_P2;PMS_P1;PMS_P2;Temp;Humidity;BMP_temperature;BMP_pressure;BME280_temperature;BME280_humidity;BME280_pressure;Samples;Min_cycle;Max_cycle;Signal;HPM_P1;HPM_P2
2022/09/06 00:02:02;;;;;;;1.25;1.10;;;;;;;20.99;84.84;101633.81;5042709;28;20025;-64
2022/09/06 00:04:27;;;;;;;2.10;1.40;;;;;;;21.03;85.02;101646.06;5027468;28;20072;-65
2022/09/06 00:06:52;;;;;;;1.30;1.20;;;;;;;21.00;85.51;101656.97;5009225;28;20469;-65
2022/09/06 00:09:18;;;;;;;1.20;1.10;;;;;;;21.02;85.70;101661.28;5028079;28;20026;-65
2022/09/06 00:11:43;;;;;;;1.35;1.25;;;;;;;21.08;85.00;101670.75;5009467;28;20040;-64
2022/09/06 00:14:08;;;;;;;2.05;1.13;;;;;;;21.04;85.05;101682.63;5026771;28;20038;-64
2022/09/06 00:16:34;;;;;;;3.03;1.70;;;;;;;21.15;83.39;101681.91;5026767;28;20032;-64
2022/09/06 00:18:59;;;;;;;1.85;1.23;;;;;;;21.31;81.69;101697.84;5035571;28;20021;-64
2022/09/06 00:21:27;;;;;;;1.55;1.20;;;;;;;21.42;80.71;101715.88;5046939;28;20111;-64
2022/09/06 00:23:53;;;;;;;2.83;1.48;;;;;;;21.54;79.21;101716.88;5047090;28;20116;-64
2022/09/06 00:26:19;;;;;;;1.88;1.35;;;;;;;21.64;78.28;101720.66;5047450;28;20442;-65
2022/09/06 00:28:44;;;;;;;1.75;1.38;;;;;;;21.68;78.32;101727.56;5046857;28;20480;-64
2022/09/06 00:31:18;;;;;;;2.80;1.20;;;;;;;21.77;77.49;101730.59;5045824;28;20029;-65
2022/09/06 00:33:43;;;;;;;1.40;1.30;;;;;;;21.81;77.21;101738.34;5046418;28;20270;-64
2022/09/06 00:36:09;;;;;;;3.92;1.20;;;;;;;21.83;76.85;101725.66;5045438;28;20033;-65
2022/09/06 00:38:35;;;;;;;1.90;1.10;;;;;;;21.83;76.40;101728.34;5012378;28;20459;-65
2022/09/06 00:41:01;;;;;;;1.20;1.10;;;;;;;21.92;75.67;101737.63;5039523;28;20033;-64
2022/09/06 00:43:26;;;;;;;1.02;1.02;;;;;;;21.96;75.64;101736.44;5046532;28;20029;-64
2022/09/06 00:45:52;;;;;;;2.95;1.23;;;;;;;21.99;75.00;101739.84;5046016;28;20028;-65
2022/09/06 00:48:18;;;;;;;1.65;1.40;;;;;;;21.99;75.43;101737.16;5046043;28;20068;-65
2022/09/06 00:50:45;;;;;;;5.45;1.55;;;;;;;21.96;75.45;101733.75;5046347;28;20344;-66
2022/09/06 00:53:10;;;;;;;1.85;1.35;;;;;;;21.90;75.86;101731.47;5008624;28;20085;-66
2022/09/06 00:55:36;;;;;;;2.05;1.23;;;;;;;22.06;75.91;101733.09;5008758;28;20100;-65
2022/09/06 00:58:01;;;;;;;1.65;1.30;;;;;;;22.15;75.41;101721.72;5008436;28;20025;-66
2022/09/06 01:00:26;;;;;;;3.78;1.60;;;;;;;22.05;76.72;101718.84;5026694;28;20022;-65
2022/09/06 01:02:52;;;;;;;1.85;1.38;;;;;;;22.07;77.31;101708.00;5029197;28;20116;-66
2022/09/06 01:05:19;;;;;;;5.22;1.80;;;;;;;21.89;78.65;101704.75;5087297;22;20513;-67
2022/09/06 01:07:57;;;;;;;3.78;1.88;;;;;;;21.76;79.36;101702.06;5067344;28;20032;-65
2022/09/06 01:10:41;;;;;;;2.30;1.70;;;;;;;21.62;80.87;101711.88;5068722;28;20024;-63
2022/09/06 01:13:30;;;;;;;3.72;1.77;;;;;;;21.43;82.47;101710.41;5068530;28;20024;-67
2022/09/06 01:16:32;;;;;;;4.82;2.20;;;;;;;21.36;83.14;101695.69;5030962;28;20032;-65
2022/09/06 01:19:34;;;;;;;2.15;1.90;;;;;;;21.31;83.22;101690.66;5047750;28;20402;-65
2022/09/06 01:22:24;;;;;;;3.55;1.90;;;;;;;21.30;83.47;101674.66;5066070;28;20428;-65
2022/09/06 01:25:17;;;;;;;7.10;2.30;;;;;;;21.11;85.17;101653.59;5069995;28;20028;-66
2022/09/06 01:28:05;;;;;;;5.22;2.22;;;;;;;21.02;86.30;101638.97;5086098;28;20432;-65
2022/09/06 01:30:31;;;;;;;5.45;2.40;;;;;;;21.02;85.88;101622.91;5085255;28;20103;-64
2022/09/06 01:33:06;;;;;;;2.42;2.25;;;;;;;21.03;85.20;101604.06;5085823;28;20016;-63
2022/09/06 01:35:43;;;;;;;5.00;2.80;;;;;;;20.92;85.26;101603.91;5083192;28;20020;-64
2022/09/06 01:38:08;;;;;;;3.58;2.50;;;;;;;20.80;85.67;101594.84;5048165;28;20040;-63
2022/09/06 01:40:35;;;;;;;3.10;2.72;;;;;;;20.77;85.90;101574.47;5047190;28;20094;-64
2022/09/06 01:43:02;;;;;;;3.08;2.78;;;;;;;20.66;86.38;101583.22;5065570;28;20124;-64
2022/09/06 01:45:54;;;;;;;4.72;2.70;;;;;;;20.58;86.58;101570.31;5065710;28;20017;-65
2022/09/06 01:48:52;;;;;;;3.08;2.78;;;;;;;20.63;86.15;101558.44;5057246;28;20027;-65
2022/09/06 01:51:28;;;;;;;3.03;2.78;;;;;;;20.56;86.27;101558.84;5084828;28;20020;-64
2022/09/06 01:54:21;;;;;;;4.45;2.97;;;;;;;20.59;85.60;101557.81;5085307;28;20044;-64
2022/09/06 01:57:04;;;;;;;3.25;3.00;;;;;;;20.49;85.41;101557.53;5067494;28;20063;-66
2022/09/06 02:00:02;;;;;;;4.70;3.25;;;;;;;20.45;85.66;101558.69;5075169;28;20020;-65
2022/09/06 02:02:52;;;;;;;3.58;2.78;;;;;;;20.35;85.92;101553.09;5064465;28;20032;-64
2022/09/06 02:05:40;;;;;;;6.38;3.28;;;;;;;20.29;86.58;101554.31;5046667;28;20068;-64
2022/09/06 02:08:12;;;;;;;3.20;2.90;;;;;;;20.20;86.82;101555.75;5030706;28;20024;-65
2022/09/06 02:11:03;;;;;;;6.68;3.70;;;;;;;20.17;86.77;101558.63;5057203;28;20394;-65
2022/09/06 02:13:32;;;;;;;4.70;3.35;;;;;;;20.04;87.51;101569.25;5084360;28;20085;-65
2022/09/06 02:16:01;;;;;;;6.13;3.30;;;;;;;19.95;88.13;101573.34;5065992;28;20028;-64
2022/09/06 02:18:49;;;;;;;4.68;3.38;;;;;;;19.90;88.11;101567.41;5085159;28;20040;-65
2022/09/06 02:21:17;;;;;;;3.60;3.28;;;;;;;19.83;88.53;101568.75;5074994;28;20094;-65
2022/09/06 02:23:43;;;;;;;4.85;3.90;;;;;;;19.77;89.68;101566.44;5046984;28;20037;-64
2022/09/06 02:26:13;;;;;;;4.45;4.00;;;;;;;19.76;89.19;101578.09;5046249;28;20024;-63
2022/09/06 02:28:38;;;;;;;6.07;3.97;;;;;;;19.75;89.78;101579.06;5046753;28;20482;-64
2022/09/06 02:31:26;;;;;;;5.70;4.57;;;;;;;19.68;90.86;101584.78;5046719;28;20690;-64
2022/09/06 02:33:51;;;;;;;8.30;4.60;;;;;;;19.69;90.87;101581.16;5047272;28;20037;-65
2022/09/06 02:36:17;;;;;;;4.43;4.03;;;;;;;19.76;90.97;101588.78;5046604;28;20020;-65
2022/09/06 02:38:43;;;;;;;5.07;4.20;;;;;;;19.77;91.37;101593.19;5062227;28;20040;-65
2022/09/06 02:41:09;;;;;;;4.78;4.38;;;;;;;19.83;90.84;101599.03;5066596;28;20028;-65
2022/09/06 02:43:34;;;;;;;5.82;4.25;;;;;;;19.86;91.24;101597.13;5065746;28;20020;-65
2022/09/06 02:46:00;;;;;;;5.57;4.85;;;;;;;19.92;91.24;101602.94;5084273;28;20048;-64
2022/09/06 02:48:25;;;;;;;7.80;4.72;;;;;;;19.92;91.39;101596.72;5084419;28;20979;-64
2022/09/06 02:50:50;;;;;;;8.57;5.40;;;;;;;19.94;91.85;101605.53;5085240;28;20016;-66
2022/09/06 02:53:16;;;;;;;8.48;5.40;;;;;;;19.96;91.63;101592.94;5069552;28;20024;-67
2022/09/06 02:55:42;;;;;;;5.38;4.88;;;;;;;19.98;91.56;101600.88;5063908;28;20082;-65
2022/09/06 02:58:08;;;;;;;5.75;5.15;;;;;;;19.95;91.56;101601.88;5064088;28;20024;-65
2022/09/06 03:00:34;;;;;;;5.43;4.80;;;;;;;20.00;91.90;101605.16;5063845;28;20025;-64
2022/09/06 03:02:59;;;;;;;7.05;5.25;;;;;;;20.01;91.58;101606.91;5068028;28;20116;-65
2022/09/06 03:05:26;;;;;;;6.00;5.40;;;;;;;20.12;90.70;101602.69;5066017;28;20059;-66
2022/09/06 03:07:51;;;;;;;9.20;5.15;;;;;;;20.13;90.92;101605.28;5083102;28;20028;-66
2022/09/06 03:10:17;;;;;;;8.35;5.03;;;;;;;20.14;91.13;101617.69;5084753;28;20077;-65
2022/09/06 03:12:43;;;;;;;8.25;6.30;;;;;;;20.16;90.85;101609.56;5084609;28;21095;-66
2022/09/06 03:15:10;;;;;;;7.38;5.90;;;;;;;20.16;91.40;101620.25;5080026;28;20103;-65
2022/09/06 03:17:35;;;;;;;6.75;5.63;;;;;;;20.19;91.31;101620.06;5083719;28;20048;-65
2022/09/06 03:20:00;;;;;;;9.27;6.15;;;;;;;20.20;91.57;101621.81;5083396;28;20570;-65
2022/09/06 03:22:26;;;;;;;9.70;6.45;;;;;;;20.22;91.39;101624.41;5084009;28;20536;-66
2022/09/06 03:24:51;;;;;;;6.53;5.88;;;;;;;20.25;91.43;101630.41;5083937;28;20115;-66
2022/09/06 03:27:16;;;;;;;9.25;6.50;;;;;;;20.28;91.27;101626.66;5084035;28;20374;-65
2022/09/06 03:29:42;;;;;;;6.53;5.57;;;;;;;20.37;90.22;101634.13;5083275;28;20031;-66
2022/09/06 03:32:07;;;;;;;10.10;7.15;;;;;;;20.34;90.34;101634.31;5065021;28;20063;-66
2022/09/06 03:34:32;;;;;;;8.90;7.05;;;;;;;20.40;89.33;101649.97;5083871;28;20032;-66
2022/09/06 03:36:58;;;;;;;9.13;7.10;;;;;;;20.35;89.41;101651.22;5072635;28;20486;-67
2022/09/06 03:39:23;;;;;;;8.38;6.32;;;;;;;20.34;89.17;101650.38;5063879;28;20677;-64
2022/09/06 03:41:48;;;;;;;9.80;7.60;;;;;;;20.40;88.95;101655.34;5100062;28;20042;-65
2022/09/06 03:44:13;;;;;;;8.30;6.40;;;;;;;20.38;88.78;101651.03;5104106;28;20011;-65
2022/09/06 03:46:39;;;;;;;8.13;6.90;;;;;;;20.36;89.17;101659.16;5103724;28;20028;-65
2022/09/06 03:49:04;;;;;;;12.65;7.07;;;;;;;20.33;88.87;101654.00;5083876;28;20410;-64
2022/09/06 03:51:30;;;;;;;8.40;6.55;;;;;;;20.32;89.30;101663.00;5091096;28;20020;-68
2022/09/06 03:53:56;;;;;;;7.75;6.60;;;;;;;20.39;89.00;101663.47;5065656;28;20498;-67
2022/09/06 03:56:21;;;;;;;10.27;6.70;;;;;;;20.43;88.90;101670.34;5074397;28;20055;-68
2022/09/06 03:58:47;;;;;;;10.88;6.93;;;;;;;20.51;88.50;101662.69;5065060;28;20598;-69
2022/09/06 04:01:12;;;;;;;8.10;6.28;;;;;;;20.56;87.10;101659.72;5076266;28;20049;-69
2022/09/06 04:03:38;;;;;;;11.65;6.32;;;;;;;20.53;86.73;101654.56;5062817;28;20029;-67
2022/09/06 04:06:04;;;;;;;6.85;6.15;;;;;;;20.50;86.69;101654.75;5062584;28;20035;-67
2022/09/06 04:08:30;;;;;;;9.18;6.82;;;;;;;20.44;87.68;101662.22;5079653;28;20102;-69
2022/09/06 04:10:57;;;;;;;9.98;7.57;;;;;;;20.36;88.12;101653.81;5070947;28;20474;-67
2022/09/06 04:13:23;;;;;;;8.23;7.10;;;;;;;20.33;88.41;101656.69;5067641;28;20012;-67
2022/09/06 04:15:49;;;;;;;11.50;7.55;;;;;;;20.31;88.42;101642.53;5072933;28;20031;-67
2022/09/06 04:18:14;;;;;;;9.30;6.75;;;;;;;20.37;87.95;101636.78;5064107;28;20028;-68
2022/09/06 04:20:40;;;;;;;11.55;7.07;;;;;;;20.29;88.37;101657.84;5069771;28;20053;-67
2022/09/06 04:23:06;;;;;;;11.00;6.85;;;;;;;20.39;88.24;101656.31;5069681;28;20123;-67
2022/09/06 04:25:31;;;;;;;6.45;5.70;;;;;;;20.48;88.15;101665.56;5096629;28;20035;-67
2022/09/06 04:27:57;;;;;;;10.23;6.30;;;;;;;20.59;87.85;101664.91;5088550;28;20632;-67
2022/09/06 04:30:22;;;;;;;9.20;6.32;;;;;;;20.60;86.97;101671.09;5062950;28;20115;-67
2022/09/06 04:32:47;;;;;;;8.02;5.78;;;;;;;20.68;86.61;101677.66;5061480;28;20025;-68
2022/09/06 04:35:13;;;;;;;8.65;7.00;;;;;;;20.66;85.94;101668.91;5063083;28;20499;-67
2022/09/06 04:37:39;;;;;;;11.55;7.28;;;;;;;20.68;85.47;101669.63;5061491;28;20027;-67
2022/09/06 04:40:05;;;;;;;10.98;8.13;;;;;;;20.61;85.06;101668.31;5077681;28;20122;-67
2022/09/06 04:42:30;;;;;;;8.40;7.20;;;;;;;20.55;86.23;101676.72;5083254;28;20572;-67
2022/09/06 04:44:55;;;;;;;8.00;6.68;;;;;;;20.56;86.27;101679.31;5085957;28;20028;-67
2022/09/06 04:47:21;;;;;;;9.05;7.45;;;;;;;20.54;86.23;101669.66;5085884;28;20320;-67
2022/09/06 04:49:48;;;;;;;12.63;7.45;;;;;;;20.54;86.11;101675.03;5085123;28;20249;-67
2022/09/06 04:52:14;;;;;;;9.32;7.25;;;;;;;20.57;85.64;101664.13;5086449;28;20028;-66
2022/09/06 04:54:39;;;;;;;10.35;7.28;;;;;;;20.38;86.26;101661.75;5085406;28;20027;-66
2022/09/06 04:57:05;;;;;;;8.20;7.15;;;;;;;20.36;86.29;101656.50;5086567;28;20032;-66
2022/09/06 04:59:30;;;;;;;9.75;7.22;;;;;;;20.33;86.21;101646.84;5085967;28;20051;-67
2022/09/06 05:01:55;;;;;;;9.27;7.45;;;;;;;20.22;87.00;101645.81;5068921;28;20316;-67
2022/09/06 05:04:21;;;;;;;15.48;7.40;;;;;;;20.09;87.58;101649.22;5065867;28;20044;-67
2022/09/06 05:06:46;;;;;;;7.60;6.78;;;;;;;20.01;87.61;101632.78;5064914;28;20020;-67
2022/09/06 05:09:12;;;;;;;8.35;6.95;;;;;;;19.93;88.26;101636.75;5087019;28;20330;-66
2022/09/06 05:11:37;;;;;;;10.18;6.95;;;;;;;19.97;88.54;101641.91;5099016;28;20377;-68
2022/09/06 05:14:02;;;;;;;9.70;8.23;;;;;;;19.86;89.77;101648.78;5093223;28;20028;-66
2022/09/06 05:16:28;;;;;;;10.00;7.93;;;;;;;19.80;90.95;101658.03;5104743;28;20106;-63
2022/09/06 05:18:53;;;;;;;9.10;7.80;;;;;;;19.81;91.28;101645.53;5106162;28;20068;-62
2022/09/06 05:21:18;;;;;;;13.27;7.93;;;;;;;19.81;90.82;101635.69;5106746;28;20020;-63
2022/09/06 05:23:44;;;;;;;10.25;7.60;;;;;;;19.79;91.17;101636.75;5093152;28;20035;-63
2022/09/06 05:26:09;;;;;;;12.27;8.13;;;;;;;19.76;91.58;101624.44;5106046;28;20103;-64
2022/09/06 05:28:34;;;;;;;13.35;8.23;;;;;;;19.73;92.53;101624.59;5104792;28;20054;-63
2022/09/06 05:31:11;;;;;;;13.80;8.85;;;;;;;19.76;91.65;101612.84;5105522;28;20023;-65
2022/09/06 05:33:37;;;;;;;13.05;9.02;;;;;;;19.78;91.99;101617.16;5068598;28;20034;-64
2022/09/06 05:36:06;;;;;;;9.30;7.95;;;;;;;19.81;91.78;101624.16;5086136;28;20019;-65
2022/09/06 05:38:31;;;;;;;14.00;8.57;;;;;;;19.79;92.20;101624.25;5105531;28;20092;-63
2022/09/06 05:40:56;;;;;;;10.68;9.50;;;;;;;19.76;92.14;101623.56;5105987;28;20098;-64
2022/09/06 05:43:22;;;;;;;11.15;8.70;;;;;;;19.78;92.39;101613.63;5091928;28;20223;-63
2022/09/06 05:45:47;;;;;;;11.00;8.65;;;;;;;19.80;92.52;101617.94;5064435;28;20032;-64
2022/09/06 05:48:12;;;;;;;10.98;9.00;;;;;;;19.83;92.54;101603.50;5064034;28;20139;-64
2022/09/06 05:50:38;;;;;;;11.02;8.07;;;;;;;19.86;92.48;101607.81;5063736;28;20379;-64
2022/09/06 05:53:03;;;;;;;13.27;9.77;;;;;;;19.88;92.83;101611.25;5077503;28;20709;-64
2022/09/06 05:55:28;;;;;;;10.30;8.95;;;;;;;19.94;92.60;101610.88;5083557;28;20024;-64
2022/09/06 05:57:54;;;;;;;14.75;8.23;;;;;;;20.01;92.46;101612.25;5102369;28;20077;-64
2022/09/06 06:00:19;;;;;;;16.23;9.02;;;;;;;20.03;92.46;101612.16;5085909;28;20030;-66
2022/09/06 06:02:48;;;;;;;9.63;8.52;;;;;;;20.17;91.77;101613.97;5104799;28;20114;-65
2022/09/06 06:05:14;;;;;;;12.93;8.80;;;;;;;20.15;91.34;101613.19;5101329;28;20048;-64
2022/09/06 06:07:40;;;;;;;11.60;8.30;;;;;;;20.20;91.67;101608.44;5086220;28;20031;-65
2022/09/06 06:10:05;;;;;;;13.55;9.30;;;;;;;20.22;91.63;101609.19;5103401;28;20310;-64
2022/09/06 06:12:31;;;;;;;13.38;8.65;;;;;;;20.27;91.14;101612.44;5103869;28;20443;-69
2022/09/06 06:14:56;;;;;;;13.73;9.20;;;;;;;20.33;90.73;101612.06;5100508;28;20566;-68
2022/09/06 06:17:21;;;;;;;15.15;8.20;;;;;;;20.44;90.75;101608.69;5104066;28;20187;-70
2022/09/06 06:19:47;;;;;;;12.57;7.97;;;;;;;20.64;90.00;101589.59;5102896;28;20022;-69
2022/09/06 06:22:12;;;;;;;11.98;8.07;;;;;;;20.68;89.41;101589.31;5104488;28;20720;-70
2022/09/06 06:24:38;;;;;;;12.48;8.07;;;;;;;20.69;89.30;101588.38;5072985;28;20029;-68
2022/09/06 06:27:04;;;;;;;12.00;7.85;;;;;;;20.76;89.07;101587.94;5063409;28;20025;-69
2022/09/06 06:29:29;;;;;;;11.93;7.72;;;;;;;20.84;89.09;101588.31;5076740;28;20437;-69
2022/09/06 06:31:54;;;;;;;12.18;7.40;;;;;;;20.95;88.77;101580.44;5104043;28;20020;-69
2022/09/06 06:34:20;;;;;;;10.05;6.93;;;;;;;21.10;88.15;101577.69;5071313;28;20587;-69
2022/09/06 06:36:46;;;;;;;8.25;6.15;;;;;;;21.17;88.04;101589.75;5083935;28;20031;-69
2022/09/06 06:39:12;;;;;;;8.23;6.50;;;;;;;21.31;86.89;101575.41;5093868;28;20419;-68
2022/09/06 06:41:37;;;;;;;8.20;6.35;;;;;;;21.46;85.63;101573.47;5103261;28;20020;-70
2022/09/06 06:44:03;;;;;;;9.25;7.10;;;;;;;21.62;83.89;101569.75;5096096;28;20016;-70
2022/09/06 06:46:31;;;;;;;6.70;5.30;;;;;;;21.82;83.59;101568.38;5083243;28;20024;-70
2022/09/06 06:48:56;;;;;;;8.75;6.25;;;;;;;21.94;82.61;101569.31;5082910;28;20032;-64
2022/09/06 06:51:24;;;;;;;6.55;5.00;;;;;;;22.03;82.21;101577.72;5083641;28;20024;-66
2022/09/06 06:53:50;;;;;;;13.25;6.57;;;;;;;22.05;82.31;101575.75;5078737;28;20156;-65
2022/09/06 06:56:27;;;;;;;14.40;6.43;;;;;;;22.10;82.38;101576.28;5082936;28;20078;-65
2022/09/06 06:58:55;;;;;;;8.02;5.55;;;;;;;22.19;81.15;101577.47;5083517;28;20115;-66
2022/09/06 07:01:21;;;;;;;7.17;5.63;;;;;;;22.37;80.58;101585.16;5082165;28;20134;-66
2022/09/06 07:03:47;;;;;;;6.63;4.97;;;;;;;22.45;79.82;101578.25;5083402;28;21179;-66
2022/09/06 07:06:13;;;;;;;7.00;4.57;;;;;;;22.61;78.91;101582.53;5083056;28;20111;-66
2022/09/06 07:08:38;;;;;;;5.60;4.18;;;;;;;22.71;77.95;101585.38;5083416;28;20032;-67
2022/09/06 07:11:05;;;;;;;5.47;4.60;;;;;;;22.81;77.18;101586.41;5065132;28;20017;-67
2022/09/06 07:13:32;;;;;;;6.75;4.35;;;;;;;22.91;76.96;101581.19;5083120;28;20020;-66
2022/09/06 07:16:09;;;;;;;5.85;4.85;;;;;;;23.02;76.45;101583.06;5065890;28;20025;-66
2022/09/06 07:18:36;;;;;;;7.28;5.10;;;;;;;22.84;76.63;101579.94;5063126;28;20044;-67
2022/09/06 07:21:01;;;;;;;11.25;4.38;;;;;;;23.15;75.28;101572.25;5062599;28;20092;-67
2022/09/06 07:23:27;;;;;;;5.80;3.78;;;;;;;23.17;75.23;101575.69;5063097;28;20066;-66
2022/09/06 07:25:52;;;;;;;7.30;4.68;;;;;;;23.10;75.60;101574.44;5057679;28;20390;-66
2022/09/06 07:28:17;;;;;;;8.15;4.30;;;;;;;23.19;75.35;101567.50;5083434;28;20482;-66
2022/09/06 07:30:43;;;;;;;6.68;4.85;;;;;;;23.24;75.19;101559.97;5081841;28;20032;-66
2022/09/06 07:33:08;;;;;;;7.38;4.65;;;;;;;23.10;75.58;101561.00;5083623;28;20404;-67
2022/09/06 07:35:33;;;;;;;9.07;5.63;;;;;;;23.15;75.12;101566.03;5071566;28;20032;-65
2022/09/06 07:38:00;;;;;;;6.50;4.53;;;;;;;23.09;75.52;101565.50;5063468;28;20029;-67
2022/09/06 07:40:27;;;;;;;7.60;4.97;;;;;;;23.03;76.11;101568.66;5061944;28;20048;-67
2022/09/06 07:42:55;;;;;;;10.70;5.10;;;;;;;23.12;76.26;101561.75;5063845;28;20024;-67
2022/09/06 07:45:20;;;;;;;7.75;6.10;;;;;;;23.20;75.73;101567.38;5071035;28;20028;-67
2022/09/06 07:47:57;;;;;;;11.30;5.85;;;;;;;23.26;75.79;101563.38;5083316;28;20443;-67
2022/09/06 07:50:23;;;;;;;7.22;6.32;;;;;;;23.30;75.88;101558.63;5082138;28;20043;-67
2022/09/06 07:52:48;;;;;;;8.02;5.97;;;;;;;23.41;75.87;101561.34;5082451;28;20208;-67
2022/09/06 07:55:13;;;;;;;7.82;5.82;;;;;;;23.39;75.47;101565.97;5074265;28;20098;-65
2022/09/06 07:57:39;;;;;;;13.98;5.60;;;;;;;23.40;75.46;101565.03;5063550;28;20049;-67
2022/09/06 08:00:04;;;;;;;10.35;6.55;;;;;;;23.41;74.85;101566.72;5061486;28;20481;-66
2022/09/06 08:02:30;;;;;;;8.02;5.40;;;;;;;23.60;74.55;101560.78;5062303;28;20040;-66
2022/09/06 08:04:56;;;;;;;9.35;6.72;;;;;;;23.60;74.35;101557.25;5044245;28;20041;-67
2022/09/06 08:07:21;;;;;;;10.48;5.80;;;;;;;23.75;74.43;101557.00;5063302;28;20305;-66
2022/09/06 08:09:46;;;;;;;10.07;6.20;;;;;;;23.81;74.37;101562.75;5062945;28;20387;-65
2022/09/06 08:12:12;;;;;;;9.32;6.25;;;;;;;23.92;74.47;101552.94;5061840;28;20028;-65
2022/09/06 08:14:37;;;;;;;8.57;6.53;;;;;;;24.06;74.62;101566.19;5062154;28;20070;-65
2022/09/06 08:17:03;;;;;;;7.32;6.53;;;;;;;24.01;74.93;101567.50;5043994;28;20111;-66
2022/09/06 08:19:28;;;;;;;10.10;6.45;;;;;;;24.06;73.94;101576.94;5065123;28;20389;-66
2022/09/06 08:21:54;;;;;;;7.00;5.15;;;;;;;24.35;73.31;101579.13;5080614;28;20494;-63
2022/09/06 08:24:19;;;;;;;7.97;6.18;;;;;;;24.23;74.11;101578.28;5087036;28;20024;-67
2022/09/06 08:26:45;;;;;;;7.50;6.00;;;;;;;24.16;74.31;101581.59;5084095;28;20259;-67
2022/09/06 08:29:11;;;;;;;9.20;6.35;;;;;;;24.09;74.90;101582.09;5086629;28;20328;-65
2022/09/06 08:31:39;;;;;;;9.63;6.55;;;;;;;24.24;75.02;101581.84;5085112;28;20062;-65
2022/09/06 08:34:05;;;;;;;13.10;6.38;;;;;;;24.26;73.76;101579.88;5087097;28;20389;-67
2022/09/06 08:36:31;;;;;;;6.78;5.20;;;;;;;24.22;74.62;101578.41;5085614;28;20012;-65
2022/09/06 08:38:59;;;;;;;7.43;5.32;;;;;;;24.39;73.91;101586.97;5086547;28;20024;-65
2022/09/06 08:41:43;;;;;;;7.55;6.32;;;;;;;24.22;73.67;101581.97;5085762;28;20386;-63
2022/09/06 08:44:16;;;;;;;7.10;4.72;;;;;;;24.50;73.11;101580.72;5073666;28;20128;-65
2022/09/06 08:46:52;;;;;;;6.47;4.57;;;;;;;24.57;72.88;101580.09;5046908;28;20020;-66
2022/09/06 08:49:17;;;;;;;5.65;4.55;;;;;;;24.71;72.86;101573.53;5066022;28;20249;-65
2022/09/06 08:51:55;;;;;;;8.50;4.10;;;;;;;24.59;72.84;101567.31;5067811;28;20437;-65
2022/09/06 08:54:28;;;;;;;8.35;5.45;;;;;;;24.83;72.28;101555.47;5085744;28;20082;-64
2022/09/06 08:57:28;;;;;;;7.35;5.47;;;;;;;24.73;72.49;101568.88;5052513;28;20028;-64
2022/09/06 08:59:58;;;;;;;13.43;4.93;;;;;;;25.02;71.17;101577.38;5046699;28;20032;-63
2022/09/06 09:02:23;;;;;;;9.05;5.22;;;;;;;25.17;69.84;101569.81;5046553;28;20028;-64
2022/09/06 09:04:52;;;;;;;9.10;5.57;;;;;;;25.08;69.94;101568.78;5066284;28;20043;-65
2022/09/06 09:07:23;;;;;;;8.13;5.22;;;;;;;24.85;69.78;101567.00;5046266;28;20099;-65
2022/09/06 09:09:50;;;;;;;7.35;5.13;;;;;;;25.01;70.23;101563.03;5065614;28;20426;-64
2022/09/06 09:12:21;;;;;;;5.50;3.95;;;;;;;25.21;69.93;101569.44;5065149;28;20033;-65
2022/09/06 09:14:48;;;;;;;8.05;4.97;;;;;;;25.38;67.85;101572.53;5091921;28;20328;-64
2022/09/06 09:17:23;;;;;;;8.02;4.63;;;;;;;25.19;68.64;101562.47;5063211;28;20047;-65
2022/09/06 09:19:48;;;;;;;7.38;5.15;;;;;;;25.08;69.98;101566.06;5081221;28;20047;-64
2022/09/06 09:22:17;;;;;;;5.25;4.40;;;;;;;25.28;69.13;101571.63;5086176;28;20068;-64
2022/09/06 09:24:43;;;;;;;5.60;3.63;;;;;;;25.64;67.89;101571.28;5066669;28;20036;-65
2022/09/06 09:27:10;;;;;;;7.18;4.82;;;;;;;25.57;68.10;101576.31;5052153;28;20037;-63
2022/09/06 09:29:53;;;;;;;8.68;4.05;;;;;;;25.95;65.88;101580.22;5063813;28;20028;-62
2022/09/06 09:32:37;;;;;;;7.63;4.15;;;;;;;25.68;67.56;101570.91;5074717;28;20085;-64
2022/09/06 09:35:15;;;;;;;5.30;4.03;;;;;;;25.90;67.24;101571.69;5065279;28;20042;-64
2022/09/06 09:37:40;;;;;;;6.28;4.13;;;;;;;26.03;65.56;101570.63;5064749;28;20024;-65
2022/09/06 09:40:11;;;;;;;5.43;4.38;;;;;;;26.05;64.82;101569.47;5084986;28;20819;-65
2022/09/06 09:42:36;;;;;;;8.90;4.32;;;;;;;25.95;64.86;101572.13;5085840;28;20494;-65
2022/09/06 09:45:23;;;;;;;7.05;4.68;;;;;;;25.76;66.93;101569.38;5083908;28;20035;-67
2022/09/06 09:47:48;;;;;;;6.80;4.40;;;;;;;25.95;67.09;101585.63;5086520;28;20024;-65
2022/09/06 09:50:24;;;;;;;5.53;4.50;;;;;;;26.08;65.36;101584.53;5079617;28;20054;-65
2022/09/06 09:52:49;;;;;;;6.78;4.95;;;;;;;26.27;64.39;101591.00;5079014;28;20028;-65
2022/09/06 09:55:15;;;;;;;9.20;5.70;;;;;;;26.26;64.45;101579.34;5085265;28;20036;-65
2022/09/06 09:57:45;;;;;;;7.25;5.63;;;;;;;26.26;65.18;101587.44;5084174;28;20019;-65
2022/09/06 10:00:12;;;;;;;10.18;5.45;;;;;;;26.46;64.55;101588.38;5084889;28;20111;-65
2022/09/06 10:02:41;;;;;;;9.60;5.45;;;;;;;26.66;64.44;101593.81;5067099;28;20069;-65
2022/09/06 10:05:14;;;;;;;7.32;4.80;;;;;;;26.43;65.69;101599.44;5055464;28;20093;-65
2022/09/06 10:07:48;;;;;;;7.47;5.43;;;;;;;26.70;64.41;101592.53;5063156;28;20037;-66
2022/09/06 10:10:20;;;;;;;10.27;5.57;;;;;;;26.54;64.70;101574.16;5044297;28;20036;-65
2022/09/06 10:12:46;;;;;;;9.18;4.93;;;;;;;26.68;64.04;101572.03;5044290;28;20067;-63
2022/09/06 10:15:30;;;;;;;6.38;4.63;;;;;;;26.70;62.21;101570.91;5041952;28;20374;-66
2022/09/06 10:17:56;;;;;;;6.18;4.53;;;;;;;26.68;62.99;101581.03;5065273;28;20045;-65
2022/09/06 10:20:28;;;;;;;4.47;3.75;;;;;;;26.71;62.91;101585.28;5064371;28;20586;-66
2022/09/06 10:23:03;;;;;;;5.93;3.40;;;;;;;26.59;62.80;101590.81;5062743;28;20394;-62
2022/09/06 10:25:44;;;;;;;9.38;4.43;;;;;;;26.64;63.31;101595.81;5064170;28;20075;-63
2022/09/06 10:28:28;;;;;;;9.13;4.85;;;;;;;26.85;62.74;101592.97;5063572;28;20134;-63
2022/09/06 10:31:01;;;;;;;6.97;3.83;;;;;;;26.79;62.42;101595.41;5080733;28;20051;-62
2022/09/06 10:33:56;;;;;;;6.53;4.47;;;;;;;26.86;62.83;101600.09;5062431;28;20055;-63
2022/09/06 10:36:28;;;;;;;7.88;4.63;;;;;;;26.96;62.44;101602.78;5043193;28;20025;-62
2022/09/06 10:38:58;;;;;;;11.50;4.60;;;;;;;26.98;62.73;101606.25;5053854;28;20103;-61
2022/09/06 10:41:50;;;;;;;12.73;4.78;;;;;;;26.93;62.39;101600.38;5042818;28;20025;-63
2022/09/06 10:44:27;;;;;;;7.75;4.35;;;;;;;27.05;62.76;101601.13;5041858;28;20559;-67
2022/09/06 10:47:00;;;;;;;8.25;4.82;;;;;;;27.12;62.67;101604.13;5064744;28;20052;-67
2022/09/06 10:49:27;;;;;;;8.35;5.10;;;;;;;27.03;62.58;101610.38;5060689;28;20090;-65
2022/09/06 10:51:59;;;;;;;6.45;5.00;;;;;;;26.88;63.28;101616.19;5043685;28;20029;-65
2022/09/06 10:54:24;;;;;;;8.85;5.38;;;;;;;26.91;63.02;101617.75;5041887;28;20029;-70
2022/09/06 10:56:59;;;;;;;12.13;5.50;;;;;;;27.17;63.33;101617.19;5076665;28;20028;-67
2022/09/06 10:59:29;;;;;;;12.80;5.50;;;;;;;27.27;63.06;101623.44;5081284;28;20089;-69
2022/09/06 11:01:59;;;;;;;8.23;5.35;;;;;;;27.56;62.37;101617.13;5062890;28;20029;-67
2022/09/06 11:04:39;;;;;;;7.30;5.35;;;;;;;27.88;61.15;101615.09;5068686;28;20493;-65
2022/09/06 11:07:24;;;;;;;12.20;5.60;;;;;;;27.92;61.46;101599.38;5073029;28;20028;-65
2022/09/06 11:09:55;;;;;;;7.78;5.68;;;;;;;27.63;62.57;101607.44;5045272;28;20378;-65
2022/09/06 11:12:26;;;;;;;10.05;5.53;;;;;;;27.52;62.75;101606.75;5063614;28;20035;-65
2022/09/06 11:14:52;;;;;;;8.88;5.60;;;;;;;27.55;62.24;101603.75;5078831;28;20122;-66
2022/09/06 11:17:33;;;;;;;7.85;4.93;;;;;;;27.71;62.03;101611.28;5075676;28;20456;-63
2022/09/06 11:20:05;;;;;;;10.02;5.63;;;;;;;27.91;62.21;101614.78;5062798;28;20024;-60
2022/09/06 11:22:46;;;;;;;11.13;6.03;;;;;;;27.86;61.69;101619.78;5063704;28;20495;-63
2022/09/06 11:25:50;;;;;;;9.93;5.78;;;;;;;27.81;62.12;101635.63;5061772;28;20031;-65
2022/09/06 11:28:26;;;;;;;8.18;4.65;;;;;;;27.89;61.23;101638.44;5041450;28;20514;-62
2022/09/06 11:30:55;;;;;;;9.57;5.25;;;;;;;27.65;61.80;101631.69;5062520;28;20539;-64
2022/09/06 11:33:28;;;;;;;7.70;5.20;;;;;;;27.63;61.58;101639.03;5063807;28;20479;-66
2022/09/06 11:36:13;;;;;;;11.52;5.68;;;;;;;27.66;61.09;101636.09;5063149;28;20039;-68